sensor_id;sensor_type;location;lat;lon;timestamp;P1;durP1;ratioP1;P2;durP2;ratioP2
72974;SDS011;61166;54.228;37.632;2023-08-30T00:01:34;884.80;;;341.50;;
72974;SDS011;61166;54.228;37.632;2023-08-30T00:04:00;896.20;;;344.43;;
72974;SDS011;61166;54.228;37.632;2023-08-30T00:06:26;891.03;;;342.17;;
72974;SDS011;61166;54.228;37.632;2023-08-30T00:08:53;892.40;;;342.27;;
72974;SDS011;61166;54.228;37.632;2023-08-30T00:11:19;888.15;;;340.80;;
72974;SDS011;61166;54.228;37.632;2023-08-30T00:13:46;885.03;;;339.98;;
72974;SDS011;61166;54.228;37.632;2023-08-30T00:16:12;879.17;;;337.30;;
72974;SDS011;61166;54.228;37.632;2023-08-30T00:18:39;876.40;;;338.75;;
72974;SDS011;61166;54.228;37.632;2023-08-30T00:21:05;892.20;;;346.65;;
72974;SDS011;61166;54.228;37.632;2023-08-30T00:23:31;885.25;;;340.73;;
72974;SDS011;61166;54.228;37.632;2023-08-30T00:25:58;890.65;;;344.77;;
72974;SDS011;61166;54.228;37.632;2023-08-30T00:28:24;899.53;;;346.27;;
72974;SDS011;61166;54.228;37.632;2023-08-30T00:30:54;894.40;;;344.42;;
72974;SDS011;61166;54.228;37.632;2023-08-30T00:33:21;891.63;;;344.20;;
72974;SDS011;61166;54.228;37.632;2023-08-30T00:35:54;902.60;;;349.58;;
72974;SDS011;61166;54.228;37.632;2023-08-30T00:38:21;899.83;;;346.30;;
72974;SDS011;61166;54.228;37.632;2023-08-30T00:40:47;892.53;;;346.03;;
72974;SDS011;61166;54.228;37.632;2023-08-30T00:43:14;884.08;;;342.88;;
72974;SDS011;61166;54.228;37.632;2023-08-30T00:45:40;890.28;;;346.63;;
72974;SDS011;61166;54.228;37.632;2023-08-30T00:48:07;882.95;;;342.00;;
72974;SDS011;61166;54.228;37.632;2023-08-30T00:50:34;884.85;;;342.40;;
72974;SDS011;61166;54.228;37.632;2023-08-30T00:53:02;884.73;;;342.63;;
72974;SDS011;61166;54.228;37.632;2023-08-30T00:55:28;884.58;;;341.98;;
72974;SDS011;61166;54.228;37.632;2023-08-30T00:57:55;893.53;;;348.50;;
72974;SDS011;61166;54.228;37.632;2023-08-30T01:00:21;895.58;;;345.50;;
72974;SDS011;61166;54.228;37.632;2023-08-30T01:02:48;874.35;;;338.30;;
72974;SDS011;61166;54.228;37.632;2023-08-30T01:05:14;866.03;;;335.83;;
72974;SDS011;61166;54.228;37.632;2023-08-30T01:07:41;874.33;;;337.98;;
72974;SDS011;61166;54.228;37.632;2023-08-30T01:10:08;877.60;;;339.13;;
72974;SDS011;61166;54.228;37.632;2023-08-30T01:12:40;886.05;;;343.35;;
72974;SDS011;61166;54.228;37.632;2023-08-30T01:15:09;891.83;;;345.77;;
72974;SDS011;61166;54.228;37.632;2023-08-30T01:17:36;874.03;;;340.37;;
72974;SDS011;61166;54.228;37.632;2023-08-30T01:20:05;893.45;;;346.10;;
72974;SDS011;61166;54.228;37.632;2023-08-30T01:27:43;958.50;;;378.08;;
72974;SDS011;61166;54.228;37.632;2023-08-30T01:30:11;967.57;;;380.50;;
72974;SDS011;61166;54.228;37.632;2023-08-30T01:32:38;956.85;;;376.20;;
72974;SDS011;61166;54.228;37.632;2023-08-30T01:35:05;945.80;;;371.35;;
72974;SDS011;61166;54.228;37.632;2023-08-30T01:37:32;960.20;;;375.30;;
72974;SDS011;61166;54.228;37.632;2023-08-30T01:39:59;952.38;;;374.60;;
72974;SDS011;61166;54.228;37.632;2023-08-30T01:42:26;944.20;;;370.43;;
72974;SDS011;61166;54.228;37.632;2023-08-30T01:44:53;951.65;;;372.65;;
72974;SDS011;61166;54.228;37.632;2023-08-30T01:47:20;957.90;;;376.50;;
72974;SDS011;61166;54.228;37.632;2023-08-30T01:49:47;942.65;;;370.30;;
72974;SDS011;61166;54.228;37.632;2023-08-30T01:52:13;951.60;;;371.70;;
72974;SDS011;61166;54.228;37.632;2023-08-30T01:54:40;948.53;;;372.13;;
72974;SDS011;61166;54.228;37.632;2023-08-30T01:57:07;947.38;;;372.00;;
72974;SDS011;61166;54.228;37.632;2023-08-30T01:59:34;955.03;;;373.80;;
72974;SDS011;61166;54.228;37.632;2023-08-30T02:02:00;943.58;;;369.10;;
72974;SDS011;61166;54.228;37.632;2023-08-30T02:04:27;950.97;;;373.45;;
72974;SDS011;61166;54.228;37.632;2023-08-30T02:09:34;947.92;;;372.10;;
72974;SDS011;61166;54.228;37.632;2023-08-30T02:12:04;957.88;;;376.13;;
72974;SDS011;61166;54.228;37.632;2023-08-30T02:14:31;947.30;;;371.50;;
72974;SDS011;61166;54.228;37.632;2023-08-30T02:16:58;947.58;;;370.45;;
72974;SDS011;61166;54.228;37.632;2023-08-30T02:19:24;949.73;;;373.40;;
72974;SDS011;61166;54.228;37.632;2023-08-30T02:21:51;945.70;;;367.92;;
72974;SDS011;61166;54.228;37.632;2023-08-30T02:24:18;939.35;;;369.75;;
72974;SDS011;61166;54.228;37.632;2023-08-30T02:26:44;939.28;;;366.15;;
72974;SDS011;61166;54.228;37.632;2023-08-30T02:29:11;932.40;;;365.92;;
72974;SDS011;61166;54.228;37.632;2023-08-30T02:31:37;934.43;;;365.63;;
72974;SDS011;61166;54.228;37.632;2023-08-30T02:34:03;939.15;;;368.50;;
72974;SDS011;61166;54.228;37.632;2023-08-30T02:36:30;936.92;;;366.65;;
72974;SDS011;61166;54.228;37.632;2023-08-30T02:38:56;931.22;;;364.90;;
72974;SDS011;61166;54.228;37.632;2023-08-30T02:41:23;933.30;;;366.58;;
72974;SDS011;61166;54.228;37.632;2023-08-30T02:43:49;930.90;;;363.47;;
72974;SDS011;61166;54.228;37.632;2023-08-30T02:46:16;927.67;;;364.17;;
72974;SDS011;61166;54.228;37.632;2023-08-30T02:48:42;923.33;;;363.50;;
72974;SDS011;61166;54.228;37.632;2023-08-30T02:51:08;930.85;;;364.55;;
72974;SDS011;61166;54.228;37.632;2023-08-30T02:53:35;930.50;;;366.30;;
72974;SDS011;61166;54.228;37.632;2023-08-30T02:56:01;927.57;;;363.77;;
72974;SDS011;61166;54.228;37.632;2023-08-30T02:58:28;880.33;;;343.67;;
72974;SDS011;61166;54.228;37.632;2023-08-30T03:00:57;865.90;;;340.17;;
72974;SDS011;61166;54.228;37.632;2023-08-30T03:03:24;865.25;;;339.35;;
72974;SDS011;61166;54.228;37.632;2023-08-30T03:05:50;866.95;;;337.85;;
72974;SDS011;61166;54.228;37.632;2023-08-30T03:08:16;867.93;;;337.27;;
72974;SDS011;61166;54.228;37.632;2023-08-30T03:10:43;860.53;;;335.58;;
72974;SDS011;61166;54.228;37.632;2023-08-30T03:13:09;860.78;;;337.52;;
72974;SDS011;61166;54.228;37.632;2023-08-30T03:15:38;855.10;;;334.45;;
72974;SDS011;61166;54.228;37.632;2023-08-30T03:18:04;851.13;;;332.70;;
72974;SDS011;61166;54.228;37.632;2023-08-30T03:20:31;856.73;;;334.37;;
72974;SDS011;61166;54.228;37.632;2023-08-30T03:22:57;853.75;;;334.30;;
72974;SDS011;61166;54.228;37.632;2023-08-30T03:25:24;858.65;;;334.33;;
72974;SDS011;61166;54.228;37.632;2023-08-30T03:27:50;853.80;;;334.30;;
72974;SDS011;61166;54.228;37.632;2023-08-30T03:30:17;855.28;;;333.50;;
72974;SDS011;61166;54.228;37.632;2023-08-30T03:32:43;855.23;;;332.90;;
72974;SDS011;61166;54.228;37.632;2023-08-30T03:35:10;856.00;;;333.13;;
72974;SDS011;61166;54.228;37.632;2023-08-30T03:37:36;860.60;;;333.48;;
72974;SDS011;61166;54.228;37.632;2023-08-30T03:40:03;858.95;;;333.33;;
72974;SDS011;61166;54.228;37.632;2023-08-30T03:42:29;860.25;;;333.55;;
72974;SDS011;61166;54.228;37.632;2023-08-30T03:44:56;859.67;;;331.30;;
72974;SDS011;61166;54.228;37.632;2023-08-30T03:47:22;864.30;;;333.60;;
72974;SDS011;61166;54.228;37.632;2023-08-30T03:49:48;879.00;;;340.20;;
72974;SDS011;61166;54.228;37.632;2023-08-30T03:52:15;877.90;;;337.27;;
72974;SDS011;61166;54.228;37.632;2023-08-30T03:54:41;879.33;;;337.60;;
72974;SDS011;61166;54.228;37.632;2023-08-30T03:57:08;879.67;;;334.43;;
72974;SDS011;61166;54.228;37.632;2023-08-30T03:59:34;898.55;;;342.55;;
72974;SDS011;61166;54.228;37.632;2023-08-30T04:02:01;912.75;;;346.02;;
72974;SDS011;61166;54.228;37.632;2023-08-30T04:04:27;916.00;;;344.08;;
72974;SDS011;61166;54.228;37.632;2023-08-30T04:06:54;925.88;;;343.67;;
72974;SDS011;61166;54.228;37.632;2023-08-30T04:09:20;964.07;;;357.73;;
72974;SDS011;61166;54.228;37.632;2023-08-30T04:11:48;982.63;;;361.42;;
72974;SDS011;61166;54.228;37.632;2023-08-30T04:14:14;1023.28;;;376.45;;
72974;SDS011;61166;54.228;37.632;2023-08-30T04:16:40;1038.13;;;379.05;;
72974;SDS011;61166;54.228;37.632;2023-08-30T04:19:07;1042.25;;;378.58;;
72974;SDS011;61166;54.228;37.632;2023-08-30T04:21:34;1048.10;;;379.17;;
72974;SDS011;61166;54.228;37.632;2023-08-30T04:24:00;1039.75;;;373.55;;
72974;SDS011;61166;54.228;37.632;2023-08-30T04:26:27;1044.78;;;378.83;;
72974;SDS011;61166;54.228;37.632;2023-08-30T04:28:53;1041.80;;;375.85;;
72974;SDS011;61166;54.228;37.632;2023-08-30T04:31:19;1044.28;;;377.10;;
72974;SDS011;61166;54.228;37.632;2023-08-30T04:33:46;1034.07;;;371.27;;
72974;SDS011;61166;54.228;37.632;2023-08-30T04:36:12;1032.50;;;368.63;;
72974;SDS011;61166;54.228;37.632;2023-08-30T04:38:39;1035.13;;;373.60;;
72974;SDS011;61166;54.228;37.632;2023-08-30T04:41:21;1038.15;;;372.35;;
72974;SDS011;61166;54.228;37.632;2023-08-30T04:43:48;1037.35;;;371.52;;
72974;SDS011;61166;54.228;37.632;2023-08-30T04:46:14;1038.83;;;368.43;;
72974;SDS011;61166;54.228;37.632;2023-08-30T04:48:41;1055.32;;;377.35;;
72974;SDS011;61166;54.228;37.632;2023-08-30T04:51:07;1054.30;;;378.70;;
72974;SDS011;61166;54.228;37.632;2023-08-30T04:53:34;1052.50;;;372.58;;
72974;SDS011;61166;54.228;37.632;2023-08-30T04:56:00;1055.63;;;375.77;;
72974;SDS011;61166;54.228;37.632;2023-08-30T04:58:26;1041.10;;;368.40;;
72974;SDS011;61166;54.228;37.632;2023-08-30T05:00:54;1045.03;;;370.95;;
72974;SDS011;61166;54.228;37.632;2023-08-30T05:03:21;1042.47;;;372.38;;
72974;SDS011;61166;54.228;37.632;2023-08-30T05:05:47;1042.63;;;373.10;;
72974;SDS011;61166;54.228;37.632;2023-08-30T05:08:14;1034.78;;;367.60;;
72974;SDS011;61166;54.228;37.632;2023-08-30T05:10:40;1043.57;;;371.30;;
72974;SDS011;61166;54.228;37.632;2023-08-30T05:13:07;1044.80;;;369.48;;
72974;SDS011;61166;54.228;37.632;2023-08-30T05:15:33;1059.88;;;375.50;;
72974;SDS011;61166;54.228;37.632;2023-08-30T05:18:00;1054.95;;;367.80;;
72974;SDS011;61166;54.228;37.632;2023-08-30T05:20:26;1038.55;;;363.48;;
72974;SDS011;61166;54.228;37.632;2023-08-30T05:22:53;1031.63;;;360.07;;
72974;SDS011;61166;54.228;37.632;2023-08-30T05:25:19;1016.13;;;353.63;;
72974;SDS011;61166;54.228;37.632;2023-08-30T05:27:45;1011.75;;;354.90;;
72974;SDS011;61166;54.228;37.632;2023-08-30T05:30:12;1007.05;;;355.50;;
72974;SDS011;61166;54.228;37.632;2023-08-30T05:32:39;1004.58;;;354.70;;
72974;SDS011;61166;54.228;37.632;2023-08-30T05:35:05;1062.30;;;373.07;;
72974;SDS011;61166;54.228;37.632;2023-08-30T05:37:32;1036.57;;;364.02;;
72974;SDS011;61166;54.228;37.632;2023-08-30T05:39:58;1029.63;;;366.95;;
72974;SDS011;61166;54.228;37.632;2023-08-30T05:42:24;1024.53;;;364.13;;
72974;SDS011;61166;54.228;37.632;2023-08-30T05:44:52;1012.13;;;361.40;;
72974;SDS011;61166;54.228;37.632;2023-08-30T05:47:20;1024.67;;;363.10;;
72974;SDS011;61166;54.228;37.632;2023-08-30T05:49:46;1007.92;;;361.67;;
72974;SDS011;61166;54.228;37.632;2023-08-30T05:52:14;1009.15;;;363.67;;
72974;SDS011;61166;54.228;37.632;2023-08-30T05:54:40;1033.35;;;364.90;;
72974;SDS011;61166;54.228;37.632;2023-08-30T05:57:07;1039.65;;;369.67;;
72974;SDS011;61166;54.228;37.632;2023-08-30T05:59:33;1025.60;;;367.40;;
72974;SDS011;61166;54.228;37.632;2023-08-30T06:02:00;1020.58;;;361.05;;
72974;SDS011;61166;54.228;37.632;2023-08-30T06:04:27;980.45;;;350.08;;
72974;SDS011;61166;54.228;37.632;2023-08-30T06:06:53;981.30;;;351.42;;
72974;SDS011;61166;54.228;37.632;2023-08-30T06:09:20;959.70;;;342.30;;
72974;SDS011;61166;54.228;37.632;2023-08-30T06:11:46;950.53;;;341.17;;
72974;SDS011;61166;54.228;37.632;2023-08-30T06:14:13;941.47;;;336.42;;
72974;SDS011;61166;54.228;37.632;2023-08-30T06:16:39;934.55;;;337.48;;
72974;SDS011;61166;54.228;37.632;2023-08-30T06:19:05;941.65;;;340.85;;
72974;SDS011;61166;54.228;37.632;2023-08-30T06:21:32;982.60;;;348.15;;
72974;SDS011;61166;54.228;37.632;2023-08-30T06:23:58;973.73;;;345.77;;
72974;SDS011;61166;54.228;37.632;2023-08-30T06:26:25;973.13;;;342.10;;
72974;SDS011;61166;54.228;37.632;2023-08-30T06:28:51;961.63;;;341.00;;
72974;SDS011;61166;54.228;37.632;2023-08-30T06:31:29;949.95;;;333.08;;
72974;SDS011;61166;54.228;37.632;2023-08-30T06:33:56;962.15;;;342.92;;
72974;SDS011;61166;54.228;37.632;2023-08-30T06:36:22;1086.10;;;383.57;;
72974;SDS011;61166;54.228;37.632;2023-08-30T06:38:49;1064.45;;;369.65;;
72974;SDS011;61166;54.228;37.632;2023-08-30T06:41:15;1155.88;;;401.77;;
72974;SDS011;61166;54.228;37.632;2023-08-30T06:43:42;1137.82;;;394.98;;
72974;SDS011;61166;54.228;37.632;2023-08-30T06:46:08;1128.90;;;385.40;;
72974;SDS011;61166;54.228;37.632;2023-08-30T06:48:35;1103.83;;;379.17;;
72974;SDS011;61166;54.228;37.632;2023-08-30T06:51:01;1096.38;;;377.60;;
72974;SDS011;61166;54.228;37.632;2023-08-30T06:53:27;1092.80;;;378.67;;
72974;SDS011;61166;54.228;37.632;2023-08-30T06:55:57;1078.93;;;375.00;;
72974;SDS011;61166;54.228;37.632;2023-08-30T06:58:24;1071.18;;;370.30;;
72974;SDS011;61166;54.228;37.632;2023-08-30T07:00:50;1072.63;;;371.50;;
72974;SDS011;61166;54.228;37.632;2023-08-30T07:03:17;1083.93;;;375.02;;
72974;SDS011;61166;54.228;37.632;2023-08-30T07:05:43;1081.32;;;374.52;;
72974;SDS011;61166;54.228;37.632;2023-08-30T07:08:10;1071.30;;;369.83;;
72974;SDS011;61166;54.228;37.632;2023-08-30T07:10:36;1074.28;;;373.45;;
72974;SDS011;61166;54.228;37.632;2023-08-30T07:13:03;1068.83;;;368.77;;
72974;SDS011;61166;54.228;37.632;2023-08-30T07:15:29;1069.03;;;370.48;;
72974;SDS011;61166;54.228;37.632;2023-08-30T07:17:56;1064.97;;;369.25;;
72974;SDS011;61166;54.228;37.632;2023-08-30T07:20:25;1051.25;;;364.50;;
72974;SDS011;61166;54.228;37.632;2023-08-30T07:22:51;1055.28;;;368.00;;
72974;SDS011;61166;54.228;37.632;2023-08-30T07:25:17;1060.03;;;370.13;;
72974;SDS011;61166;54.228;37.632;2023-08-30T07:27:44;1077.88;;;377.60;;
72974;SDS011;61166;54.228;37.632;2023-08-30T07:30:11;1080.38;;;383.15;;
72974;SDS011;61166;54.228;37.632;2023-08-30T07:32:37;1063.13;;;374.60;;
72974;SDS011;61166;54.228;37.632;2023-08-30T07:35:04;1085.22;;;378.92;;
72974;SDS011;61166;54.228;37.632;2023-08-30T07:37:31;1085.40;;;376.47;;
72974;SDS011;61166;54.228;37.632;2023-08-30T07:39:57;1096.80;;;379.67;;
72974;SDS011;61166;54.228;37.632;2023-08-30T07:42:24;1114.03;;;386.33;;
72974;SDS011;61166;54.228;37.632;2023-08-30T07:44:50;1115.68;;;385.15;;
72974;SDS011;61166;54.228;37.632;2023-08-30T07:47:17;1123.63;;;388.52;;
72974;SDS011;61166;54.228;37.632;2023-08-30T07:49:43;1117.87;;;384.27;;
72974;SDS011;61166;54.228;37.632;2023-08-30T07:52:10;1105.60;;;382.75;;
72974;SDS011;61166;54.228;37.632;2023-08-30T07:54:37;1107.65;;;388.13;;
72974;SDS011;61166;54.228;37.632;2023-08-30T07:57:03;1085.60;;;378.30;;
72974;SDS011;61166;54.228;37.632;2023-08-30T07:59:32;1129.03;;;390.85;;
72974;SDS011;61166;54.228;37.632;2023-08-30T08:01:59;1179.47;;;408.20;;
72974;SDS011;61166;54.228;37.632;2023-08-30T08:04:25;1421.82;;;518.55;;
72974;SDS011;61166;54.228;37.632;2023-08-30T08:06:52;1431.40;;;532.75;;
72974;SDS011;61166;54.228;37.632;2023-08-30T08:09:22;1392.68;;;512.08;;
72974;SDS011;61166;54.228;37.632;2023-08-30T08:11:49;1264.97;;;449.75;;
72974;SDS011;61166;54.228;37.632;2023-08-30T08:14:16;1290.23;;;457.53;;
72974;SDS011;61166;54.228;37.632;2023-08-30T08:16:42;1275.80;;;456.60;;
72974;SDS011;61166;54.228;37.632;2023-08-30T08:19:09;1222.03;;;425.85;;
72974;SDS011;61166;54.228;37.632;2023-08-30T08:21:35;1174.28;;;406.30;;
72974;SDS011;61166;54.228;37.632;2023-08-30T08:24:02;1169.68;;;407.13;;
72974;SDS011;61166;54.228;37.632;2023-08-30T08:26:29;1188.13;;;417.90;;
72974;SDS011;61166;54.228;37.632;2023-08-30T08:28:56;1202.15;;;422.30;;
72974;SDS011;61166;54.228;37.632;2023-08-30T08:31:22;1194.80;;;417.35;;
72974;SDS011;61166;54.228;37.632;2023-08-30T08:33:50;1280.50;;;458.27;;
72974;SDS011;61166;54.228;37.632;2023-08-30T08:36:17;1202.40;;;416.20;;
72974;SDS011;61166;54.228;37.632;2023-08-30T08:38:43;1217.57;;;426.23;;
72974;SDS011;61166;54.228;37.632;2023-08-30T08:41:11;1287.53;;;453.27;;
72974;SDS011;61166;54.228;37.632;2023-08-30T08:43:38;1314.30;;;469.85;;
72974;SDS011;61166;54.228;37.632;2023-08-30T08:46:04;1351.05;;;485.48;;
72974;SDS011;61166;54.228;37.632;2023-08-30T08:48:33;1341.13;;;485.90;;
72974;SDS011;61166;54.228;37.632;2023-08-30T08:51:00;1313.80;;;474.53;;
72974;SDS011;61166;54.228;37.632;2023-08-30T08:53:26;1341.05;;;483.83;;
72974;SDS011;61166;54.228;37.632;2023-08-30T08:55:53;1346.65;;;491.90;;
72974;SDS011;61166;54.228;37.632;2023-08-30T08:58:21;1331.25;;;484.83;;
72974;SDS011;61166;54.228;37.632;2023-08-30T09:00:48;1319.93;;;474.58;;
72974;SDS011;61166;54.228;37.632;2023-08-30T09:03:15;1338.57;;;486.03;;
72974;SDS011;61166;54.228;37.632;2023-08-30T09:05:42;1328.28;;;478.70;;
72974;SDS011;61166;54.228;37.632;2023-08-30T09:08:09;1297.78;;;467.70;;
72974;SDS011;61166;54.228;37.632;2023-08-30T09:10:36;1163.97;;;404.23;;
72974;SDS011;61166;54.228;37.632;2023-08-30T09:13:03;1152.80;;;400.70;;
72974;SDS011;61166;54.228;37.632;2023-08-30T09:15:32;1145.90;;;399.50;;
72974;SDS011;61166;54.228;37.632;2023-08-30T09:17:59;1160.07;;;401.23;;
72974;SDS011;61166;54.228;37.632;2023-08-30T09:20:26;1164.28;;;406.60;;
72974;SDS011;61166;54.228;37.632;2023-08-30T09:22:52;1161.93;;;402.73;;
72974;SDS011;61166;54.228;37.632;2023-08-30T09:25:26;1168.85;;;403.40;;
72974;SDS011;61166;54.228;37.632;2023-08-30T09:27:59;1152.17;;;400.03;;
72974;SDS011;61166;54.228;37.632;2023-08-30T09:30:26;1136.50;;;391.80;;
72974;SDS011;61166;54.228;37.632;2023-08-30T09:32:52;1156.32;;;400.63;;
72974;SDS011;61166;54.228;37.632;2023-08-30T09:35:19;1141.57;;;392.95;;
72974;SDS011;61166;54.228;37.632;2023-08-30T09:37:45;1112.10;;;385.13;;
72974;SDS011;61166;54.228;37.632;2023-08-30T09:40:12;1112.67;;;385.50;;
72974;SDS011;61166;54.228;37.632;2023-08-30T09:42:44;1154.88;;;401.60;;
72974;SDS011;61166;54.228;37.632;2023-08-30T09:45:19;1150.93;;;400.48;;
72974;SDS011;61166;54.228;37.632;2023-08-30T09:47:46;1141.63;;;397.88;;
72974;SDS011;61166;54.228;37.632;2023-08-30T09:50:13;1117.35;;;384.77;;
72974;SDS011;61166;54.228;37.632;2023-08-30T09:52:40;1113.13;;;385.17;;
72974;SDS011;61166;54.228;37.632;2023-08-30T09:55:06;1111.40;;;384.50;;
72974;SDS011;61166;54.228;37.632;2023-08-30T09:57:33;1109.82;;;386.92;;
72974;SDS011;61166;54.228;37.632;2023-08-30T10:00:00;1116.88;;;386.17;;
72974;SDS011;61166;54.228;37.632;2023-08-30T10:02:27;1117.22;;;388.55;;
72974;SDS011;61166;54.228;37.632;2023-08-30T10:04:54;1129.27;;;391.37;;
72974;SDS011;61166;54.228;37.632;2023-08-30T10:07:21;1124.78;;;388.65;;
72974;SDS011;61166;54.228;37.632;2023-08-30T10:09:50;1122.75;;;387.83;;
72974;SDS011;61166;54.228;37.632;2023-08-30T10:12:35;1116.85;;;384.35;;
72974;SDS011;61166;54.228;37.632;2023-08-30T10:15:02;1116.47;;;384.85;;
72974;SDS011;61166;54.228;37.632;2023-08-30T10:17:31;1103.53;;;382.13;;
72974;SDS011;61166;54.228;37.632;2023-08-30T10:19:58;1102.53;;;383.55;;
72974;SDS011;61166;54.228;37.632;2023-08-30T10:22:25;1097.45;;;383.48;;
72974;SDS011;61166;54.228;37.632;2023-08-30T10:24:59;1046.55;;;366.73;;
72974;SDS011;61166;54.228;37.632;2023-08-30T10:27:38;1088.90;;;382.58;;
72974;SDS011;61166;54.228;37.632;2023-08-30T10:30:06;1079.47;;;377.87;;
72974;SDS011;61166;54.228;37.632;2023-08-30T10:32:37;1074.00;;;377.10;;
72974;SDS011;61166;54.228;37.632;2023-08-30T10:35:04;1070.50;;;378.80;;
72974;SDS011;61166;54.228;37.632;2023-08-30T10:37:31;1070.25;;;377.38;;
72974;SDS011;61166;54.228;37.632;2023-08-30T10:40:02;1065.28;;;377.77;;
72974;SDS011;61166;54.228;37.632;2023-08-30T10:42:28;1067.47;;;379.97;;
72974;SDS011;61166;54.228;37.632;2023-08-30T10:45:03;1057.60;;;376.73;;
72974;SDS011;61166;54.228;37.632;2023-08-30T10:47:37;1090.97;;;385.30;;
72974;SDS011;61166;54.228;37.632;2023-08-30T10:50:05;1050.50;;;372.05;;
72974;SDS011;61166;54.228;37.632;2023-08-30T10:52:32;1035.25;;;366.25;;
72974;SDS011;61166;54.228;37.632;2023-08-30T10:55:05;1025.63;;;363.87;;
72974;SDS011;61166;54.228;37.632;2023-08-30T10:57:31;1040.25;;;367.70;;
72974;SDS011;61166;54.228;37.632;2023-08-30T11:02:44;1031.20;;;365.05;;
72974;SDS011;61166;54.228;37.632;2023-08-30T11:05:10;1030.68;;;368.40;;
72974;SDS011;61166;54.228;37.632;2023-08-30T11:07:37;1041.10;;;377.63;;
72974;SDS011;61166;54.228;37.632;2023-08-30T11:10:04;1030.78;;;368.27;;
72974;SDS011;61166;54.228;37.632;2023-08-30T11:12:30;1022.95;;;364.95;;
72974;SDS011;61166;54.228;37.632;2023-08-30T11:14:57;1051.25;;;374.17;;
72974;SDS011;61166;54.228;37.632;2023-08-30T11:17:24;1011.17;;;360.80;;
72974;SDS011;61166;54.228;37.632;2023-08-30T11:19:50;1000.23;;;357.87;;
72974;SDS011;61166;54.228;37.632;2023-08-30T11:22:17;999.75;;;356.35;;
72974;SDS011;61166;54.228;37.632;2023-08-30T11:24:45;999.17;;;357.70;;
72974;SDS011;61166;54.228;37.632;2023-08-30T11:27:13;996.17;;;356.73;;
72974;SDS011;61166;54.228;37.632;2023-08-30T11:29:39;1008.85;;;362.40;;
72974;SDS011;61166;54.228;37.632;2023-08-30T11:32:07;1058.60;;;378.33;;
72974;SDS011;61166;54.228;37.632;2023-08-30T11:34:33;1062.03;;;379.60;;
72974;SDS011;61166;54.228;37.632;2023-08-30T11:37:00;1058.35;;;381.38;;
72974;SDS011;61166;54.228;37.632;2023-08-30T11:39:27;1196.15;;;444.35;;
72974;SDS011;61166;54.228;37.632;2023-08-30T11:41:54;1160.63;;;427.52;;
72974;SDS011;61166;54.228;37.632;2023-08-30T11:44:23;1148.67;;;421.83;;
72974;SDS011;61166;54.228;37.632;2023-08-30T11:46:57;1178.65;;;439.25;;
72974;SDS011;61166;54.228;37.632;2023-08-30T11:49:23;1138.45;;;420.38;;
72974;SDS011;61166;54.228;37.632;2023-08-30T11:51:50;1131.13;;;414.52;;
72974;SDS011;61166;54.228;37.632;2023-08-30T11:54:16;1118.68;;;409.95;;
72974;SDS011;61166;54.228;37.632;2023-08-30T11:56:43;1114.77;;;406.37;;
72974;SDS011;61166;54.228;37.632;2023-08-30T11:59:17;1114.53;;;403.65;;
72974;SDS011;61166;54.228;37.632;2023-08-30T12:01:46;1117.78;;;410.33;;
72974;SDS011;61166;54.228;37.632;2023-08-30T12:04:12;1119.43;;;410.25;;
72974;SDS011;61166;54.228;37.632;2023-08-30T12:06:39;1080.25;;;394.80;;
72974;SDS011;61166;54.228;37.632;2023-08-30T12:09:05;1048.30;;;379.40;;
72974;SDS011;61166;54.228;37.632;2023-08-30T12:11:37;1049.53;;;380.63;;
72974;SDS011;61166;54.228;37.632;2023-08-30T12:14:03;1055.45;;;382.30;;
72974;SDS011;61166;54.228;37.632;2023-08-30T12:16:31;1051.18;;;382.48;;
72974;SDS011;61166;54.228;37.632;2023-08-30T12:19:06;1053.95;;;383.02;;
72974;SDS011;61166;54.228;37.632;2023-08-30T12:21:38;1041.53;;;378.00;;
72974;SDS011;61166;54.228;37.632;2023-08-30T12:24:05;1048.47;;;381.42;;
72974;SDS011;61166;54.228;37.632;2023-08-30T12:26:31;1049.70;;;384.00;;
72974;SDS011;61166;54.228;37.632;2023-08-30T12:28:58;1044.22;;;377.92;;
72974;SDS011;61166;54.228;37.632;2023-08-30T12:31:25;1033.53;;;376.25;;
72974;SDS011;61166;54.228;37.632;2023-08-30T12:33:51;1050.90;;;382.50;;
72974;SDS011;61166;54.228;37.632;2023-08-30T12:36:17;1058.28;;;387.25;;
72974;SDS011;61166;54.228;37.632;2023-08-30T12:38:44;1049.53;;;383.48;;
72974;SDS011;61166;54.228;37.632;2023-08-30T12:41:10;1049.63;;;383.38;;
72974;SDS011;61166;54.228;37.632;2023-08-30T12:43:37;1036.18;;;373.40;;
72974;SDS011;61166;54.228;37.632;2023-08-30T12:46:03;1054.63;;;383.63;;
72974;SDS011;61166;54.228;37.632;2023-08-30T12:48:30;1030.82;;;372.45;;
72974;SDS011;61166;54.228;37.632;2023-08-30T12:50:56;1031.60;;;375.83;;
72974;SDS011;61166;54.228;37.632;2023-08-30T12:53:23;1021.70;;;369.42;;
72974;SDS011;61166;54.228;37.632;2023-08-30T12:55:49;1048.00;;;381.05;;
72974;SDS011;61166;54.228;37.632;2023-08-30T12:58:16;1048.60;;;382.83;;
72974;SDS011;61166;54.228;37.632;2023-08-30T13:00:43;1032.60;;;375.70;;
72974;SDS011;61166;54.228;37.632;2023-08-30T13:03:10;1074.63;;;395.63;;
72974;SDS011;61166;54.228;37.632;2023-08-30T13:05:37;1031.55;;;376.63;;
72974;SDS011;61166;54.228;37.632;2023-08-30T13:08:03;1008.53;;;367.27;;
72974;SDS011;61166;54.228;37.632;2023-08-30T13:10:31;1004.07;;;365.13;;
72974;SDS011;61166;54.228;37.632;2023-08-30T13:12:58;1026.40;;;372.05;;
72974;SDS011;61166;54.228;37.632;2023-08-30T13:15:25;1019.70;;;372.65;;
72974;SDS011;61166;54.228;37.632;2023-08-30T13:17:51;1010.65;;;367.20;;
72974;SDS011;61166;54.228;37.632;2023-08-30T13:20:18;1025.68;;;376.08;;
72974;SDS011;61166;54.228;37.632;2023-08-30T13:22:45;1061.87;;;385.97;;
72974;SDS011;61166;54.228;37.632;2023-08-30T13:25:11;1026.38;;;371.30;;
72974;SDS011;61166;54.228;37.632;2023-08-30T13:27:38;1037.32;;;377.77;;
72974;SDS011;61166;54.228;37.632;2023-08-30T13:30:04;1029.05;;;374.25;;
72974;SDS011;61166;54.228;37.632;2023-08-30T13:32:31;994.03;;;361.25;;
72974;SDS011;61166;54.228;37.632;2023-08-30T13:34:57;995.93;;;362.97;;
72974;SDS011;61166;54.228;37.632;2023-08-30T13:37:24;1001.50;;;364.13;;
72974;SDS011;61166;54.228;37.632;2023-08-30T13:39:52;996.97;;;365.35;;
72974;SDS011;61166;54.228;37.632;2023-08-30T13:42:18;1053.95;;;384.85;;
72974;SDS011;61166;54.228;37.632;2023-08-30T13:44:45;1056.75;;;385.75;;
72974;SDS011;61166;54.228;37.632;2023-08-30T13:47:11;1103.70;;;406.53;;